createdAt,value
2023-12-01T00:00:17.616Z,34.300
2023-12-01T00:01:18.449Z,32.400
2023-12-01T00:02:18.562Z,32.300
2023-12-01T00:03:17.804Z,32.800
2023-12-01T00:04:18.787Z,32.200
2023-12-01T00:05:17.762Z,31.700
2023-12-01T00:06:18.260Z,32.300
2023-12-01T00:07:17.799Z,33.000
2023-12-01T00:08:18.368Z,32.500
2023-12-01T00:09:17.881Z,33.700
2023-12-01T00:10:18.624Z,33.600
2023-12-01T00:11:18.536Z,31.600
2023-12-01T00:12:18.626Z,31.300
2023-12-01T00:13:18.344Z,31.100
2023-12-01T00:14:17.961Z,33.500
2023-12-01T00:15:18.487Z,33.700
2023-12-01T00:17:18.118Z,32.700
2023-12-01T00:18:17.844Z,34.100
2023-12-01T00:19:19.038Z,31.900
2023-12-01T00:20:18.256Z,31.100
2023-12-01T00:21:17.733Z,32.000
2023-12-01T00:22:18.412Z,32.600
2023-12-01T00:23:18.437Z,32.700
2023-12-01T00:24:18.478Z,33.200
2023-12-01T00:25:18.677Z,30.800
2023-12-01T00:26:18.608Z,32.800
2023-12-01T00:27:18.806Z,31.500
2023-12-01T00:28:18.886Z,29.300
2023-12-01T00:29:18.385Z,32.000
2023-12-01T00:31:17.909Z,31.600
2023-12-01T00:32:18.690Z,32.000
2023-12-01T00:33:18.978Z,32.700
2023-12-01T00:34:17.987Z,32.300
2023-12-01T00:35:18.282Z,30.700
2023-12-01T00:36:18.329Z,32.100
2023-12-01T00:37:18.437Z,33.800
2023-12-01T00:38:18.526Z,33.500
2023-12-01T00:40:18.823Z,34.700
2023-12-01T00:41:17.731Z,31.100
2023-12-01T00:42:18.422Z,34.200
2023-12-01T00:43:18.668Z,30.500
2023-12-01T00:45:17.979Z,31.100
2023-12-01T00:46:18.665Z,32.400
2023-12-01T00:47:18.570Z,33.100
2023-12-01T00:48:18.471Z,32.400
2023-12-01T00:49:18.804Z,30.400
2023-12-01T00:50:18.482Z,32.000
2023-12-01T00:52:18.544Z,33.800
2023-12-01T00:53:18.556Z,32.000
2023-12-01T00:54:18.727Z,33.300
2023-12-01T00:55:18.761Z,29.800
2023-12-01T00:56:18.261Z,32.400
2023-12-01T00:57:17.710Z,32.500
2023-12-01T00:58:18.387Z,32.900
2023-12-01T00:59:17.936Z,33.300
2023-12-01T01:00:18.648Z,31.800
2023-12-01T01:01:18.476Z,32.500
2023-12-01T01:02:18.317Z,32.300
2023-12-01T01:03:18.554Z,32.100
2023-12-01T01:05:18.397Z,34.100
2023-12-01T01:06:17.877Z,31.400
2023-12-01T01:07:18.529Z,34.700
2023-12-01T01:08:18.674Z,31.300
2023-12-01T01:09:18.238Z,32.300
2023-12-01T01:10:17.844Z,32.800
2023-12-01T01:11:20.288Z,33.800
2023-12-01T01:12:18.005Z,33.400
2023-12-01T01:13:18.695Z,33.700
2023-12-01T01:14:18.284Z,35.500
2023-12-01T01:15:18.085Z,34.800
2023-12-01T01:16:18.492Z,35.900
2023-12-01T01:18:18.412Z,32.400
2023-12-01T01:19:19.194Z,34.700
2023-12-01T01:20:18.570Z,35.700
2023-12-01T01:21:18.094Z,34.000
2023-12-01T01:22:17.720Z,35.000
2023-12-01T01:23:18.410Z,34.400
2023-12-01T01:26:18.904Z,37.000
2023-12-01T01:27:18.462Z,34.100
2023-12-01T01:28:18.105Z,36.100
2023-12-01T01:31:18.631Z,37.300
2023-12-01T01:32:18.341Z,33.900
2023-12-01T01:33:18.494Z,32.700
2023-12-01T01:36:18.201Z,32.500
2023-12-01T01:37:17.878Z,31.300
2023-12-01T01:38:18.435Z,34.000
2023-12-01T01:39:18.148Z,34.900
2023-12-01T01:40:18.362Z,33.400
2023-12-01T01:41:18.102Z,34.600
2023-12-01T01:44:18.162Z,36.100
2023-12-01T01:45:18.214Z,32.600
2023-12-01T01:46:18.940Z,31.300
2023-12-01T01:47:17.625Z,31.000
2023-12-01T01:48:18.392Z,31.300
2023-12-01T01:49:18.706Z,32.800
2023-12-01T01:51:18.711Z,34.000
2023-12-01T01:52:18.297Z,32.900
2023-12-01T01:53:17.965Z,34.100
2023-12-01T01:54:18.401Z,33.200
2023-12-01T01:56:17.848Z,33.700
2023-12-01T01:57:18.390Z,34.400
2023-12-01T01:58:18.213Z,34.500
2023-12-01T01:59:18.482Z,33.800
2023-12-01T02:01:18.642Z,34.700
2023-12-01T02:02:19.304Z,34.800
2023-12-01T02:03:18.648Z,33.500
2023-12-01T02:04:18.767Z,35.000
2023-12-01T02:05:18.711Z,33.700
2023-12-01T02:06:18.191Z,35.400
2023-12-01T02:07:17.767Z,35.100
2023-12-01T02:08:18.425Z,34.000
2023-12-01T02:09:17.937Z,33.000
2023-12-01T02:10:18.677Z,36.300
2023-12-01T02:11:18.180Z,32.900
2023-12-01T02:12:17.673Z,32.700
2023-12-01T02:13:18.495Z,36.800
2023-12-01T02:14:18.398Z,35.400
2023-12-01T02:15:17.925Z,35.300
2023-12-01T02:16:18.756Z,33.400
2023-12-01T02:17:18.729Z,33.000
2023-12-01T02:18:18.761Z,35.400
2023-12-01T02:19:18.731Z,33.100
2023-12-01T02:20:19.753Z,35.000
2023-12-01T02:23:18.522Z,34.600
2023-12-01T02:24:18.094Z,33.700
2023-12-01T02:25:17.909Z,33.800
2023-12-01T02:26:18.508Z,33.800
2023-12-01T02:28:18.509Z,35.100
2023-12-01T02:29:20.239Z,31.600
2023-12-01T02:30:17.842Z,32.600
2023-12-01T02:31:18.925Z,32.900
2023-12-01T02:32:18.655Z,33.800
2023-12-01T02:34:18.271Z,33.400
2023-12-01T02:35:17.860Z,34.900
2023-12-01T02:36:18.389Z,32.800
2023-12-01T02:37:18.343Z,33.100
2023-12-01T02:38:17.992Z,33.500
2023-12-01T02:39:18.108Z,33.200
2023-12-01T02:40:18.283Z,32.000
2023-12-01T02:41:19.000Z,33.300
2023-12-01T02:42:18.536Z,34.800
2023-12-01T02:43:18.457Z,34.300
2023-12-01T02:44:18.583Z,33.000
2023-12-01T02:45:18.120Z,32.100
2023-12-01T02:46:18.977Z,33.100
2023-12-01T02:47:17.812Z,32.500
2023-12-01T02:48:18.416Z,33.100
2023-12-01T02:49:18.076Z,34.400
2023-12-01T02:50:17.610Z,35.800
2023-12-01T02:51:18.184Z,33.200
2023-12-01T02:52:17.934Z,31.100
2023-12-01T02:53:18.532Z,33.200
2023-12-01T02:54:18.075Z,32.700
2023-12-01T02:55:17.792Z,31.000
2023-12-01T02:56:18.522Z,33.600
2023-12-01T02:57:18.366Z,34.000
2023-12-01T02:58:18.710Z,34.200
2023-12-01T02:59:18.439Z,33.200
2023-12-01T03:00:18.523Z,37.000
2023-12-01T03:03:18.355Z,33.000
2023-12-01T03:04:18.364Z,35.200
2023-12-01T03:05:18.219Z,32.100
2023-12-01T03:07:19.224Z,35.500
2023-12-01T03:08:18.181Z,34.200
2023-12-01T03:09:17.823Z,34.600
2023-12-01T03:10:18.673Z,33.800
2023-12-01T03:11:18.341Z,34.400
2023-12-01T03:12:20.333Z,35.800
2023-12-01T03:13:18.849Z,34.700
2023-12-01T03:15:22.604Z,34.000
2023-12-01T03:16:18.882Z,34.600
2023-12-01T03:17:17.941Z,35.800
2023-12-01T03:18:20.398Z,35.700
2023-12-01T03:21:19.779Z,35.500
2023-12-01T03:22:18.548Z,31.200
2023-12-01T03:24:17.833Z,34.400
2023-12-01T03:25:19.615Z,34.300
2023-12-01T03:26:18.464Z,32.600
2023-12-01T03:27:18.516Z,33.100
2023-12-01T03:29:17.864Z,31.400
2023-12-01T03:30:18.456Z,34.800
2023-12-01T03:31:19.145Z,33.000
2023-12-01T03:32:17.845Z,33.600
2023-12-01T03:33:18.478Z,32.200
2023-12-01T03:34:18.230Z,33.800
2023-12-01T03:35:18.048Z,31.700
2023-12-01T03:36:18.121Z,33.000
2023-12-01T03:37:18.346Z,32.800
2023-12-01T03:39:18.348Z,33.800
2023-12-01T03:40:18.839Z,33.500
2023-12-01T03:42:18.472Z,32.000
2023-12-01T03:43:18.790Z,32.900
2023-12-01T03:44:18.314Z,32.800
2023-12-01T03:45:17.938Z,31.900
2023-12-01T03:46:18.371Z,31.200
2023-12-01T03:47:18.066Z,32.600
2023-12-01T03:50:18.530Z,31.800
2023-12-01T03:52:18.314Z,35.800
2023-12-01T03:53:18.406Z,33.200
2023-12-01T03:54:17.876Z,35.200
2023-12-01T03:55:19.160Z,36.600
2023-12-01T03:56:18.561Z,34.700
2023-12-01T03:57:18.582Z,37.500
2023-12-01T03:58:18.862Z,34.600
2023-12-01T03:59:18.477Z,38.600
2023-12-01T04:00:19.230Z,34.000
2023-12-01T04:01:18.167Z,37.700
2023-12-01T04:02:18.342Z,36.800
2023-12-01T04:03:18.053Z,37.100
2023-12-01T04:04:18.219Z,37.900
2023-12-01T04:05:20.607Z,35.500
2023-12-01T04:06:18.275Z,32.900
2023-12-01T04:07:18.449Z,35.300
2023-12-01T04:08:19.023Z,38.700
2023-12-01T04:09:18.418Z,36.900
2023-12-01T04:10:18.693Z,34.400
2023-12-01T04:11:19.161Z,37.700
2023-12-01T04:12:17.639Z,36.500
2023-12-01T04:13:20.332Z,35.400
2023-12-01T04:14:18.771Z,35.700
2023-12-01T04:15:18.411Z,35.200
2023-12-01T04:16:18.190Z,32.600
2023-12-01T04:19:18.577Z,34.500
2023-12-01T04:20:18.205Z,33.900
2023-12-01T04:21:18.333Z,33.300
2023-12-01T04:22:18.302Z,37.000
2023-12-01T04:23:18.391Z,33.800
2023-12-01T04:24:18.452Z,34.700
2023-12-01T04:25:18.726Z,34.400
2023-12-01T04:26:18.593Z,35.700
2023-12-01T04:27:18.640Z,35.200
2023-12-01T04:29:17.915Z,33.600
2023-12-01T04:30:18.491Z,34.600
2023-12-01T04:31:23.596Z,34.600
2023-12-01T04:32:18.454Z,33.000
2023-12-01T04:33:18.558Z,37.600
2023-12-01T04:35:18.253Z,32.800
2023-12-01T04:36:17.737Z,32.600
2023-12-01T04:37:18.763Z,35.100
2023-12-01T04:38:18.568Z,31.600
2023-12-01T04:39:18.579Z,36.400
2023-12-01T04:40:19.566Z,32.500
2023-12-01T04:41:18.660Z,34.300
2023-12-01T04:42:18.174Z,33.200
2023-12-01T04:43:17.908Z,33.800
2023-12-01T04:44:18.536Z,34.200
2023-12-01T04:45:18.333Z,32.000
2023-12-01T04:46:18.260Z,31.600
2023-12-01T04:48:18.428Z,31.700
2023-12-01T04:49:19.304Z,33.900
2023-12-01T04:50:17.832Z,33.900
2023-12-01T04:51:18.360Z,33.300
2023-12-01T04:52:18.591Z,33.800
2023-12-01T04:54:18.068Z,34.600
2023-12-01T04:55:17.975Z,33.100
2023-12-01T04:56:17.555Z,33.600
2023-12-01T04:57:18.757Z,33.700
2023-12-01T04:58:18.649Z,33.500
2023-12-01T04:59:18.272Z,35.300
2023-12-01T05:02:18.204Z,33.800
2023-12-01T05:03:18.590Z,33.600
2023-12-01T05:04:19.054Z,33.700
2023-12-01T05:05:18.699Z,32.100
2023-12-01T05:06:18.399Z,34.700
2023-12-01T05:07:18.650Z,34.300
2023-12-01T05:09:18.150Z,33.900
2023-12-01T05:10:18.915Z,34.000
2023-12-01T05:11:17.612Z,32.800
2023-12-01T05:12:18.876Z,33.000
2023-12-01T05:13:19.278Z,32.900
2023-12-01T05:14:17.850Z,31.500
2023-12-01T05:15:18.347Z,31.200
2023-12-01T05:16:18.305Z,32.800
2023-12-01T05:17:18.408Z,32.600
2023-12-01T05:18:18.483Z,32.300
2023-12-01T05:19:18.713Z,32.700
2023-12-01T05:21:17.920Z,31.800
2023-12-01T05:22:18.729Z,31.600
2023-12-01T05:23:19.495Z,34.400
2023-12-01T05:24:18.036Z,30.700
2023-12-01T05:25:18.146Z,32.500
2023-12-01T05:26:17.743Z,33.500
2023-12-01T05:27:18.223Z,32.400
2023-12-01T05:28:18.452Z,33.900
2023-12-01T05:29:18.022Z,34.000
2023-12-01T05:32:18.395Z,34.200
2023-12-01T05:33:18.505Z,36.200
2023-12-01T05:34:19.403Z,37.800
2023-12-01T05:35:18.466Z,35.400
2023-12-01T05:36:18.568Z,36.300
2023-12-01T05:37:18.778Z,36.200
2023-12-01T05:38:18.632Z,34.600
2023-12-01T05:40:18.109Z,34.800
2023-12-01T05:42:18.475Z,36.200
2023-12-01T05:44:18.319Z,36.800
2023-12-01T05:46:18.550Z,36.300
2023-12-01T05:49:18.621Z,37.500
2023-12-01T05:51:18.658Z,37.000
2023-12-01T05:52:18.860Z,37.900
2023-12-01T05:53:18.446Z,36.600
2023-12-01T05:54:18.008Z,38.400
2023-12-01T05:55:23.072Z,39.400
2023-12-01T05:56:17.561Z,36.300
2023-12-01T05:57:18.065Z,37.600
2023-12-01T05:58:18.392Z,38.000
2023-12-01T06:00:18.269Z,38.500
2023-12-01T06:01:18.511Z,36.300
2023-12-01T06:02:19.264Z,36.400
2023-12-01T06:03:18.950Z,36.700
2023-12-01T06:05:18.611Z,36.800
2023-12-01T06:06:18.682Z,38.600
2023-12-01T06:07:18.366Z,38.200
2023-12-01T06:08:18.544Z,36.500
2023-12-01T06:09:18.003Z,39.800
2023-12-01T06:10:18.738Z,41.400
2023-12-01T06:12:18.079Z,40.000
2023-12-01T06:13:18.376Z,37.600
2023-12-01T06:14:17.943Z,36.600
2023-12-01T06:15:18.425Z,37.600
2023-12-01T06:16:18.596Z,38.800
2023-12-01T06:18:18.180Z,41.000
2023-12-01T06:19:19.732Z,37.800
2023-12-01T06:20:18.453Z,37.300
2023-12-01T06:21:18.298Z,36.900
2023-12-01T06:22:18.213Z,37.000
2023-12-01T06:23:17.758Z,37.900
2023-12-01T06:24:18.534Z,40.300
2023-12-01T06:25:18.194Z,38.300
2023-12-01T06:26:18.134Z,40.000
2023-12-01T06:27:17.652Z,39.600
2023-12-01T06:28:19.363Z,37.200
2023-12-01T06:29:18.322Z,40.600
2023-12-01T06:30:18.478Z,42.300
2023-12-01T06:31:20.563Z,39.900
2023-12-01T06:32:18.614Z,37.200
2023-12-01T06:35:18.397Z,37.100
2023-12-01T06:36:17.895Z,37.600
2023-12-01T06:37:19.001Z,38.100
2023-12-01T06:39:17.983Z,39.000
2023-12-01T06:40:19.997Z,37.700
2023-12-01T06:41:17.983Z,41.300
2023-12-01T06:42:18.460Z,39.600
2023-12-01T06:43:19.106Z,39.600
2023-12-01T06:44:17.616Z,39.900
2023-12-01T06:45:18.493Z,39.400
2023-12-01T06:46:18.241Z,39.200
2023-12-01T06:47:18.184Z,41.000
2023-12-01T06:48:18.230Z,41.300
2023-12-01T06:49:18.110Z,40.100
2023-12-01T06:52:18.073Z,40.900
2023-12-01T06:53:18.403Z,40.200
2023-12-01T06:54:18.189Z,39.500
2023-12-01T06:55:18.420Z,40.900
2023-12-01T06:56:18.271Z,44.200
2023-12-01T06:57:18.352Z,41.100
2023-12-01T06:58:18.531Z,41.900
2023-12-01T06:59:21.059Z,37.800
2023-12-01T07:00:17.520Z,43.300
2023-12-01T07:01:18.772Z,41.400
2023-12-01T07:02:18.997Z,44.500
2023-12-01T07:03:18.426Z,42.800
2023-12-01T07:05:17.801Z,42.200
2023-12-01T07:06:18.374Z,42.700
2023-12-01T07:07:18.055Z,42.000
2023-12-01T07:08:19.363Z,40.200
2023-12-01T07:10:18.799Z,44.800
2023-12-01T07:11:18.451Z,44.000
2023-12-01T07:12:18.378Z,43.300
2023-12-01T07:13:18.873Z,38.500
2023-12-01T07:15:18.580Z,39.900
2023-12-01T07:16:18.458Z,38.900
2023-12-01T07:17:18.982Z,41.300
2023-12-01T07:18:17.920Z,40.200
2023-12-01T07:19:18.709Z,43.600
2023-12-01T07:20:18.500Z,41.800
2023-12-01T07:21:18.046Z,42.300
2023-12-01T07:24:18.417Z,41.600
2023-12-01T07:25:18.546Z,38.700
2023-12-01T07:26:18.532Z,40.400
2023-12-01T07:27:18.487Z,42.800
2023-12-01T07:28:18.760Z,42.400
2023-12-01T07:29:18.381Z,42.700
2023-12-01T07:30:18.634Z,40.900
2023-12-01T07:31:19.392Z,40.500
2023-12-01T07:32:18.059Z,40.800
2023-12-01T07:33:17.810Z,40.000
2023-12-01T07:34:18.631Z,41.000
2023-12-01T07:35:18.376Z,41.100
2023-12-01T07:36:35.307Z,43.300
2023-12-01T07:37:18.263Z,41.000
2023-12-01T07:38:18.250Z,42.100
2023-12-01T07:39:19.352Z,37.900
2023-12-01T07:40:18.516Z,39.600
2023-12-01T07:41:18.513Z,42.200
2023-12-01T07:42:18.547Z,40.700
2023-12-01T07:43:18.531Z,40.600
2023-12-01T07:44:18.872Z,42.200
2023-12-01T07:45:19.820Z,42.500
2023-12-01T07:46:19.009Z,41.700
2023-12-01T07:47:18.110Z,42.700
2023-12-01T07:49:22.511Z,43.300
2023-12-01T07:51:18.086Z,48.100
2023-12-01T07:52:18.396Z,43.800
2023-12-01T07:53:18.444Z,45.400
2023-12-01T07:54:18.401Z,45.900
2023-12-01T07:55:18.771Z,40.500
2023-12-01T07:56:17.836Z,41.100
2023-12-01T07:57:18.450Z,40.300
2023-12-01T07:58:19.033Z,41.200
2023-12-01T07:59:17.803Z,42.300
2023-12-01T08:01:18.975Z,43.300
2023-12-01T08:02:18.260Z,42.200
2023-12-01T08:03:18.347Z,44.300
2023-12-01T08:04:19.636Z,42.800
2023-12-01T08:05:20.235Z,41.200
2023-12-01T08:06:17.674Z,44.000
2023-12-01T08:09:18.057Z,43.700
2023-12-01T08:10:20.990Z,42.900
2023-12-01T08:11:18.868Z,43.200
2023-12-01T08:13:18.628Z,43.200
2023-12-01T08:14:18.417Z,41.500
2023-12-01T08:16:18.807Z,46.200
2023-12-01T08:17:18.294Z,44.000
2023-12-01T08:18:18.442Z,44.900
2023-12-01T08:19:18.761Z,48.400
2023-12-01T08:20:17.744Z,43.700
2023-12-01T08:21:20.889Z,43.200
2023-12-01T08:22:18.644Z,43.100
2023-12-01T08:23:18.400Z,43.100
2023-12-01T08:24:18.608Z,44.700
2023-12-01T08:25:19.012Z,45.200
2023-12-01T08:26:17.635Z,48.400
2023-12-01T08:27:19.851Z,47.700
2023-12-01T08:28:18.502Z,43.200
2023-12-01T08:29:18.082Z,44.500
2023-12-01T08:31:17.794Z,42.500
2023-12-01T08:32:19.064Z,41.700
2023-12-01T08:33:18.058Z,43.000
2023-12-01T08:34:29.698Z,41.800
2023-12-01T08:36:23.338Z,44.100
2023-12-01T08:37:25.217Z,42.700
2023-12-01T08:39:17.940Z,40.900
2023-12-01T08:40:21.052Z,42.200
2023-12-01T08:41:18.316Z,41.700
2023-12-01T08:42:18.416Z,39.700
2023-12-01T08:43:18.066Z,39.200
2023-12-01T08:44:17.838Z,43.900
2023-12-01T08:45:18.742Z,39.400
2023-12-01T08:46:18.692Z,39.700
2023-12-01T08:48:18.435Z,42.300
2023-12-01T08:49:18.542Z,39.000
2023-12-01T08:50:24.353Z,38.800
2023-12-01T08:51:18.988Z,38.200
2023-12-01T08:52:17.769Z,39.000
2023-12-01T08:53:18.552Z,40.300
2023-12-01T08:54:25.236Z,38.000
2023-12-01T08:56:17.831Z,38.800
2023-12-01T08:57:18.454Z,36.300
2023-12-01T08:58:18.033Z,39.500
2023-12-01T08:59:17.879Z,38.300
2023-12-01T09:00:18.610Z,38.500
2023-12-01T09:01:18.629Z,40.900
2023-12-01T09:02:24.204Z,40.600
2023-12-01T09:03:17.838Z,41.800
2023-12-01T09:04:19.244Z,43.000
2023-12-01T09:05:18.382Z,40.700
2023-12-01T09:06:18.733Z,43.200
2023-12-01T09:07:18.510Z,44.600
2023-12-01T09:08:18.611Z,42.700
2023-12-01T09:09:18.601Z,43.700
2023-12-01T09:10:18.211Z,45.400
2023-12-01T09:13:20.116Z,45.500
2023-12-01T09:14:17.742Z,46.900
2023-12-01T09:15:18.455Z,45.800
2023-12-01T09:16:18.255Z,44.500
2023-12-01T09:17:18.371Z,44.800
2023-12-01T09:18:18.803Z,49.900
2023-12-01T09:19:19.013Z,47.900
2023-12-01T09:20:18.467Z,44.200
2023-12-01T09:21:18.892Z,46.000
2023-12-01T09:23:18.581Z,49.500
2023-12-01T09:24:18.548Z,45.800
2023-12-01T09:25:20.111Z,45.800
2023-12-01T09:26:18.474Z,45.500
2023-12-01T09:27:18.533Z,45.400
2023-12-01T09:28:18.502Z,45.200
2023-12-01T09:29:18.182Z,45.200
2023-12-01T09:30:19.305Z,47.700
2023-12-01T09:31:18.658Z,49.100
2023-12-01T09:33:18.764Z,51.400
2023-12-01T09:34:18.534Z,48.600
2023-12-01T09:35:53.528Z,47.800
2023-12-01T09:36:18.837Z,49.500
2023-12-01T09:37:18.582Z,48.000
2023-12-01T09:39:18.278Z,48.000
2023-12-01T09:40:17.779Z,48.100
2023-12-01T09:41:17.984Z,43.600
2023-12-01T09:42:18.406Z,48.900
2023-12-01T09:43:18.553Z,48.100
2023-12-01T09:44:23.264Z,47.900
2023-12-01T09:45:17.689Z,46.000
2023-12-01T09:46:18.839Z,44.200
2023-12-01T09:49:18.487Z,47.900
2023-12-01T09:51:18.144Z,43.100
2023-12-01T09:52:17.866Z,43.000
2023-12-01T09:53:18.558Z,46.400
2023-12-01T09:54:19.450Z,43.700
2023-12-01T09:55:18.248Z,44.500
2023-12-01T09:56:18.109Z,39.900
2023-12-01T09:57:19.757Z,42.700
2023-12-01T09:58:18.447Z,45.800
2023-12-01T09:59:18.373Z,41.600
2023-12-01T10:00:18.669Z,40.300
2023-12-01T10:01:18.433Z,42.200
2023-12-01T10:02:18.986Z,43.300
2023-12-01T10:04:18.829Z,45.500
2023-12-01T10:05:19.327Z,44.200
2023-12-01T10:06:18.501Z,42.300
2023-12-01T10:07:19.096Z,47.300
2023-12-01T10:09:18.833Z,41.700
2023-12-01T10:10:18.399Z,41.900
2023-12-01T10:11:18.182Z,38.900
2023-12-01T10:12:18.423Z,41.000
2023-12-01T10:13:21.022Z,40.000
2023-12-01T10:17:18.668Z,43.200
2023-12-01T10:18:29.315Z,44.200
2023-12-01T10:20:17.778Z,44.500
2023-12-01T10:21:18.692Z,39.700
2023-12-01T10:22:18.373Z,40.500
2023-12-01T10:23:18.042Z,39.700
2023-12-01T10:24:17.657Z,42.500
2023-12-01T10:25:18.128Z,39.900
2023-12-01T10:26:18.155Z,38.000
2023-12-01T10:27:18.715Z,37.800
2023-12-01T10:28:18.426Z,40.700
2023-12-01T10:31:17.648Z,40.700
2023-12-01T10:32:18.426Z,37.200
2023-12-01T10:33:18.542Z,38.900
2023-12-01T10:35:17.950Z,40.200
2023-12-01T10:36:19.019Z,39.100
2023-12-01T10:37:18.544Z,41.400
2023-12-01T10:38:18.368Z,38.900
2023-12-01T10:40:18.299Z,40.600
2023-12-01T10:41:18.332Z,40.400
2023-12-01T10:42:18.602Z,40.200
2023-12-01T10:44:18.525Z,41.100
2023-12-01T10:45:18.403Z,40.200
2023-12-01T10:46:19.140Z,39.000
2023-12-01T10:47:20.277Z,40.000
2023-12-01T10:48:19.027Z,42.300
2023-12-01T10:49:17.954Z,40.900
2023-12-01T10:50:18.516Z,41.100
2023-12-01T10:51:18.693Z,42.200
2023-12-01T10:52:18.299Z,40.900
2023-12-01T10:54:18.712Z,43.000
2023-12-01T10:55:18.467Z,40.200
2023-12-01T10:56:18.547Z,39.600
2023-12-01T10:57:18.938Z,42.200
2023-12-01T10:58:17.653Z,44.400
2023-12-01T10:59:18.453Z,41.100
2023-12-01T11:00:18.294Z,41.500
2023-12-01T11:01:18.055Z,39.500
2023-12-01T11:02:18.653Z,40.200
2023-12-01T11:03:20.678Z,41.500
2023-12-01T11:04:18.252Z,38.300
2023-12-01T11:05:18.002Z,41.100
2023-12-01T11:07:18.270Z,40.400
2023-12-01T11:09:18.571Z,42.000
2023-12-01T11:10:18.332Z,39.000
2023-12-01T11:12:18.069Z,40.000
2023-12-01T11:13:18.641Z,37.200
2023-12-01T11:14:17.879Z,38.000
2023-12-01T11:15:19.470Z,39.200
2023-12-01T11:16:18.370Z,38.700
2023-12-01T11:17:23.094Z,39.000
2023-12-01T11:20:18.161Z,37.300
2023-12-01T11:21:18.083Z,36.200
2023-12-01T11:22:18.244Z,37.800
2023-12-01T11:23:20.724Z,37.000
2023-12-01T11:24:19.309Z,37.600
2023-12-01T11:25:18.425Z,36.200
2023-12-01T11:26:18.533Z,38.500
2023-12-01T11:27:18.781Z,40.100
2023-12-01T11:28:18.614Z,39.400
2023-12-01T11:29:21.414Z,39.100
2023-12-01T11:30:18.195Z,45.200
2023-12-01T11:32:19.240Z,37.200
2023-12-01T11:33:18.925Z,37.100
2023-12-01T11:34:18.644Z,40.200
2023-12-01T11:35:20.044Z,36.900
2023-12-01T11:36:18.534Z,40.300
2023-12-01T11:37:18.558Z,37.700
2023-12-01T11:38:18.363Z,38.700
2023-12-01T11:39:19.322Z,35.700
2023-12-01T11:41:18.578Z,39.100
2023-12-01T11:42:18.470Z,34.400
2023-12-01T11:43:38.651Z,34.100
2023-12-01T11:45:19.245Z,38.100
2023-12-01T11:46:18.946Z,36.700
2023-12-01T11:47:21.376Z,35.000
2023-12-01T11:48:19.347Z,35.400
2023-12-01T11:49:19.700Z,35.400
2023-12-01T11:50:18.279Z,37.600
2023-12-01T11:51:18.477Z,36.900
2023-12-01T11:52:18.522Z,36.500
2023-12-01T11:53:18.769Z,35.500
2023-12-01T11:54:17.897Z,34.800
2023-12-01T11:55:18.826Z,33.200
2023-12-01T11:56:18.635Z,32.200
2023-12-01T11:57:18.591Z,34.300
2023-12-01T11:58:18.853Z,31.300
2023-12-01T11:59:18.467Z,35.500
2023-12-01T12:00:18.607Z,33.600
2023-12-01T12:01:18.187Z,31.100
2023-12-01T12:02:18.489Z,33.800
2023-12-01T12:03:18.547Z,34.400
2023-12-01T12:04:18.721Z,32.600
2023-12-01T12:05:17.738Z,33.000
2023-12-01T12:06:17.930Z,32.300
2023-12-01T12:07:18.311Z,31.800
2023-12-01T12:08:18.502Z,33.600
2023-12-01T12:09:18.920Z,36.100
2023-12-01T12:10:18.680Z,32.100
2023-12-01T12:11:18.168Z,32.100
2023-12-01T12:12:20.344Z,31.900
2023-12-01T12:13:18.214Z,30.100
2023-12-01T12:14:18.345Z,30.400
2023-12-01T12:15:18.289Z,33.700
2023-12-01T12:16:18.701Z,30.000
2023-12-01T12:17:18.746Z,32.100
2023-12-01T12:18:19.567Z,31.500
2023-12-01T12:19:19.144Z,32.100
2023-12-01T12:20:23.647Z,31.100
2023-12-01T12:21:17.657Z,33.200
2023-12-01T12:22:18.738Z,32.500
2023-12-01T12:23:18.574Z,32.400
2023-12-01T12:24:19.104Z,31.700
2023-12-01T12:25:19.022Z,31.700
2023-12-01T12:26:18.025Z,32.800
2023-12-01T12:27:18.298Z,36.100
2023-12-01T12:28:18.196Z,33.300
2023-12-01T12:29:18.161Z,32.600
2023-12-01T12:30:18.425Z,29.600
2023-12-01T12:31:18.799Z,31.000
2023-12-01T12:32:19.179Z,34.100
2023-12-01T12:34:23.651Z,31.900
2023-12-01T12:36:18.721Z,31.700
2023-12-01T12:37:18.576Z,32.500
2023-12-01T12:38:18.682Z,31.900
2023-12-01T12:39:18.917Z,30.900
2023-12-01T12:40:17.644Z,29.500
2023-12-01T12:41:18.220Z,30.400
2023-12-01T12:42:18.099Z,30.500
2023-12-01T12:43:17.981Z,30.800
2023-12-01T12:44:18.579Z,31.900
2023-12-01T12:45:18.392Z,30.700
2023-12-01T12:46:18.416Z,29.200
2023-12-01T12:47:18.975Z,31.100
2023-12-01T12:48:18.885Z,30.600
2023-12-01T12:49:18.481Z,28.600
2023-12-01T12:50:18.503Z,30.500
2023-12-01T12:51:18.669Z,28.900
2023-12-01T12:52:18.279Z,29.200
2023-12-01T12:53:17.806Z,29.300
2023-12-01T12:54:18.615Z,32.900
2023-12-01T12:55:18.340Z,31.000
2023-12-01T12:56:18.213Z,30.800
2023-12-01T12:57:18.080Z,30.300
2023-12-01T12:58:17.577Z,29.400
2023-12-01T12:59:18.332Z,28.500
2023-12-01T13:00:18.558Z,28.100
2023-12-01T13:01:18.381Z,31.400
2023-12-01T13:02:18.468Z,29.700
2023-12-01T13:03:18.825Z,30.100
2023-12-01T13:04:17.885Z,26.700
2023-12-01T13:05:17.678Z,27.000
2023-12-01T13:06:18.769Z,31.200
2023-12-01T13:07:18.716Z,27.500
2023-12-01T13:08:18.289Z,28.700
2023-12-01T13:09:18.378Z,28.700
2023-12-01T13:10:17.637Z,29.300
2023-12-01T13:11:18.219Z,28.700
2023-12-01T13:12:18.449Z,27.600
2023-12-01T13:13:18.144Z,28.100
2023-12-01T13:14:18.985Z,30.100
2023-12-01T13:15:17.744Z,29.500
2023-12-01T13:16:18.616Z,28.600
2023-12-01T13:17:18.456Z,30.000
2023-12-01T13:18:18.953Z,27.000
2023-12-01T13:19:19.114Z,28.200
2023-12-01T13:20:18.553Z,28.100
2023-12-01T13:21:19.103Z,28.500
2023-12-01T13:22:17.785Z,27.700
2023-12-01T13:23:18.381Z,27.100
2023-12-01T13:24:18.441Z,27.400
2023-12-01T13:25:17.765Z,27.200
2023-12-01T13:26:18.309Z,29.000
2023-12-01T13:27:18.352Z,28.100
2023-12-01T13:29:18.402Z,28.700
2023-12-01T13:30:18.656Z,28.700
2023-12-01T13:31:18.644Z,29.200
2023-12-01T13:32:18.553Z,28.100
2023-12-01T13:33:18.998Z,29.900
2023-12-01T13:35:18.869Z,26.300
2023-12-01T13:36:18.993Z,29.900
2023-12-01T13:37:17.855Z,27.800
2023-12-01T13:38:18.591Z,29.800
2023-12-01T13:40:18.441Z,28.800
2023-12-01T13:41:18.143Z,27.600
2023-12-01T13:42:18.356Z,26.900
2023-12-01T13:43:18.252Z,27.400
2023-12-01T13:45:23.533Z,27.700
2023-12-01T13:46:18.581Z,27.200
2023-12-01T13:48:18.765Z,26.000
2023-12-01T13:49:18.492Z,27.700
2023-12-01T13:51:17.850Z,28.000
2023-12-01T13:52:18.482Z,26.500
2023-12-01T13:53:17.993Z,26.900
2023-12-01T13:54:18.947Z,28.400
2023-12-01T13:55:18.673Z,25.900
2023-12-01T13:56:23.313Z,27.100
2023-12-01T13:57:18.465Z,26.000
2023-12-01T13:58:18.770Z,29.300
2023-12-01T13:59:18.010Z,27.000
2023-12-01T14:00:18.049Z,24.300
2023-12-01T14:01:18.964Z,26.900
2023-12-01T14:02:18.540Z,27.300
2023-12-01T14:03:35.483Z,29.500
2023-12-01T14:05:17.980Z,25.200
2023-12-01T14:06:19.404Z,25.100
2023-12-01T14:07:18.201Z,27.100
2023-12-01T14:08:18.061Z,28.000
2023-12-01T14:09:17.776Z,29.500
2023-12-01T14:10:18.860Z,26.400
2023-12-01T14:11:18.417Z,25.700
2023-12-01T14:12:19.434Z,25.400
2023-12-01T14:13:18.511Z,25.200
2023-12-01T14:14:18.686Z,26.700
2023-12-01T14:15:18.501Z,25.700
2023-12-01T14:16:18.829Z,25.100
2023-12-01T14:17:17.868Z,25.600
2023-12-01T14:18:18.990Z,25.900
2023-12-01T14:19:17.951Z,27.400
2023-12-01T14:20:18.738Z,27.100
2023-12-01T14:21:18.477Z,26.400
2023-12-01T14:22:18.173Z,25.300
2023-12-01T14:23:17.648Z,27.100
2023-12-01T14:24:18.363Z,28.900
2023-12-01T14:25:18.523Z,26.500